sensor_id;sensor_type;location;lat;lon;timestamp;temperature;humidity
11559;DHT22;5835;42.930;25.178;2024-02-26T00:00:02;11.30;99.90
11559;DHT22;5835;42.930;25.178;2024-02-26T00:02:31;11.30;99.90
11559;DHT22;5835;42.930;25.178;2024-02-26T00:05:04;11.10;99.90
11559;DHT22;5835;42.930;25.178;2024-02-26T00:07:32;11.00;99.90
11559;DHT22;5835;42.930;25.178;2024-02-26T00:09:59;10.90;99.90
11559;DHT22;5835;42.930;25.178;2024-02-26T00:12:27;10.90;99.90
11559;DHT22;5835;42.930;25.178;2024-02-26T00:14:56;11.00;99.90
11559;DHT22;5835;42.930;25.178;2024-02-26T00:17:24;10.90;99.90
11559;DHT22;5835;42.930;25.178;2024-02-26T00:19:53;10.80;99.90
11559;DHT22;5835;42.930;25.178;2024-02-26T00:22:20;10.70;99.90
11559;DHT22;5835;42.930;25.178;2024-02-26T00:24:48;10.70;99.90
11559;DHT22;5835;42.930;25.178;2024-02-26T00:27:15;10.80;99.90
11559;DHT22;5835;42.930;25.178;2024-02-26T00:29:43;10.80;99.90
11559;DHT22;5835;42.930;25.178;2024-02-26T00:32:12;10.70;99.90
11559;DHT22;5835;42.930;25.178;2024-02-26T00:34:39;10.70;99.90
11559;DHT22;5835;42.930;25.178;2024-02-26T00:37:07;10.70;99.90
11559;DHT22;5835;42.930;25.178;2024-02-26T00:39:34;10.60;99.90
11559;DHT22;5835;42.930;25.178;2024-02-26T00:42:02;10.60;99.90
11559;DHT22;5835;42.930;25.178;2024-02-26T00:44:30;10.60;99.90
11559;DHT22;5835;42.930;25.178;2024-02-26T00:46:57;10.80;99.90
11559;DHT22;5835;42.930;25.178;2024-02-26T00:49:26;10.70;99.90
11559;DHT22;5835;42.930;25.178;2024-02-26T00:51:54;10.60;99.90
11559;DHT22;5835;42.930;25.178;2024-02-26T00:54:21;10.60;99.90
11559;DHT22;5835;42.930;25.178;2024-02-26T00:56:49;10.70;99.90
11559;DHT22;5835;42.930;25.178;2024-02-26T00:59:16;10.80;99.90
11559;DHT22;5835;42.930;25.178;2024-02-26T01:01:43;10.80;99.90
11559;DHT22;5835;42.930;25.178;2024-02-26T01:04:11;10.90;99.90
11559;DHT22;5835;42.930;25.178;2024-02-26T01:06:40;10.90;99.90
11559;DHT22;5835;42.930;25.178;2024-02-26T01:09:07;10.90;99.90
11559;DHT22;5835;42.930;25.178;2024-02-26T01:11:35;11.00;99.90
11559;DHT22;5835;42.930;25.178;2024-02-26T01:14:03;11.00;99.90
11559;DHT22;5835;42.930;25.178;2024-02-26T01:16:30;11.00;99.90
11559;DHT22;5835;42.930;25.178;2024-02-26T01:18:58;11.00;99.90
11559;DHT22;5835;42.930;25.178;2024-02-26T01:21:25;11.10;99.90
11559;DHT22;5835;42.930;25.178;2024-02-26T01:23:57;11.00;99.90
11559;DHT22;5835;42.930;25.178;2024-02-26T01:26:24;11.10;99.90
11559;DHT22;5835;42.930;25.178;2024-02-26T01:28:51;11.00;99.90
11559;DHT22;5835;42.930;25.178;2024-02-26T01:31:20;10.90;99.90
11559;DHT22;5835;42.930;25.178;2024-02-26T01:33:48;11.00;99.90
11559;DHT22;5835;42.930;25.178;2024-02-26T01:36:18;11.10;99.90
11559;DHT22;5835;42.930;25.178;2024-02-26T01:38:46;11.10;99.90
11559;DHT22;5835;42.930;25.178;2024-02-26T01:41:15;11.20;99.90
11559;DHT22;5835;42.930;25.178;2024-02-26T01:43:43;11.30;99.90
11559;DHT22;5835;42.930;25.178;2024-02-26T01:46:14;11.20;99.90
11559;DHT22;5835;42.930;25.178;2024-02-26T01:48:42;11.30;99.90
11559;DHT22;5835;42.930;25.178;2024-02-26T01:51:10;11.30;99.90
11559;DHT22;5835;42.930;25.178;2024-02-26T01:53:38;11.50;99.90
11559;DHT22;5835;42.930;25.178;2024-02-26T01:56:06;11.60;99.90
11559;DHT22;5835;42.930;25.178;2024-02-26T01:58:35;11.70;99.90
11559;DHT22;5835;42.930;25.178;2024-02-26T02:01:03;11.80;99.90
11559;DHT22;5835;42.930;25.178;2024-02-26T02:03:31;12.00;99.90
11559;DHT22;5835;42.930;25.178;2024-02-26T02:05:59;12.10;99.90
11559;DHT22;5835;42.930;25.178;2024-02-26T02:08:27;12.10;99.90
11559;DHT22;5835;42.930;25.178;2024-02-26T02:10:54;12.20;99.90
11559;DHT22;5835;42.930;25.178;2024-02-26T02:13:22;12.20;99.90
11559;DHT22;5835;42.930;25.178;2024-02-26T02:15:51;12.20;99.90
11559;DHT22;5835;42.930;25.178;2024-02-26T02:18:19;12.20;99.90
11559;DHT22;5835;42.930;25.178;2024-02-26T02:20:48;12.20;99.90
11559;DHT22;5835;42.930;25.178;2024-02-26T02:23:15;12.20;99.90
11559;DHT22;5835;42.930;25.178;2024-02-26T02:25:43;12.30;99.90
11559;DHT22;5835;42.930;25.178;2024-02-26T02:28:10;12.30;99.90
11559;DHT22;5835;42.930;25.178;2024-02-26T02:30:38;12.40;99.90
11559;DHT22;5835;42.930;25.178;2024-02-26T02:33:06;12.40;97.90
11559;DHT22;5835;42.930;25.178;2024-02-26T02:35:34;12.30;94.10
11559;DHT22;5835;42.930;25.178;2024-02-26T02:38:03;12.40;91.70
11559;DHT22;5835;42.930;25.178;2024-02-26T02:40:30;12.40;89.70
11559;DHT22;5835;42.930;25.178;2024-02-26T02:42:58;12.50;75.60
11559;DHT22;5835;42.930;25.178;2024-02-26T02:45:25;12.50;64.90
11559;DHT22;5835;42.930;25.178;2024-02-26T02:47:53;12.50;54.70
11559;DHT22;5835;42.930;25.178;2024-02-26T02:50:20;12.50;44.80
11559;DHT22;5835;42.930;25.178;2024-02-26T02:52:47;12.70;37.30
11559;DHT22;5835;42.930;25.178;2024-02-26T02:55:17;12.70;34.90
11559;DHT22;5835;42.930;25.178;2024-02-26T02:57:45;12.70;32.40
11559;DHT22;5835;42.930;25.178;2024-02-26T03:00:13;12.70;32.00
11559;DHT22;5835;42.930;25.178;2024-02-26T03:02:40;12.70;33.60
11559;DHT22;5835;42.930;25.178;2024-02-26T03:05:09;12.70;36.30
11559;DHT22;5835;42.930;25.178;2024-02-26T03:07:36;12.60;39.50
11559;DHT22;5835;42.930;25.178;2024-02-26T03:10:04;12.60;41.50
11559;DHT22;5835;42.930;25.178;2024-02-26T03:12:33;12.60;45.30
11559;DHT22;5835;42.930;25.178;2024-02-26T03:15:01;12.60;49.20
11559;DHT22;5835;42.930;25.178;2024-02-26T03:17:29;12.60;50.50
11559;DHT22;5835;42.930;25.178;2024-02-26T03:19:56;12.60;51.40
11559;DHT22;5835;42.930;25.178;2024-02-26T03:22:23;12.60;49.80
11559;DHT22;5835;42.930;25.178;2024-02-26T03:24:51;12.70;36.10
11559;DHT22;5835;42.930;25.178;2024-02-26T03:27:18;12.70;28.30
11559;DHT22;5835;42.930;25.178;2024-02-26T03:29:47;12.80;23.60
11559;DHT22;5835;42.930;25.178;2024-02-26T03:32:15;12.80;19.60
11559;DHT22;5835;42.930;25.178;2024-02-26T03:34:45;12.70;10.90
11559;DHT22;5835;42.930;25.178;2024-02-26T03:37:12;12.80;4.50
11559;DHT22;5835;42.930;25.178;2024-02-26T03:39:41;12.80;1.00
11559;DHT22;5835;42.930;25.178;2024-02-26T03:42:08;12.80;1.00
11559;DHT22;5835;42.930;25.178;2024-02-26T03:44:35;12.60;4.40
11559;DHT22;5835;42.930;25.178;2024-02-26T03:47:04;12.50;1.00
11559;DHT22;5835;42.930;25.178;2024-02-26T03:49:32;12.50;1.00
11559;DHT22;5835;42.930;25.178;2024-02-26T03:51:59;12.60;1.00
11559;DHT22;5835;42.930;25.178;2024-02-26T03:54:27;12.70;15.60
11559;DHT22;5835;42.930;25.178;2024-02-26T03:56:54;12.70;2.00
11559;DHT22;5835;42.930;25.178;2024-02-26T03:59:21;12.80;1.00
11559;DHT22;5835;42.930;25.178;2024-02-26T04:01:50;12.80;1.00
11559;DHT22;5835;42.930;25.178;2024-02-26T04:04:20;12.80;1.00
11559;DHT22;5835;42.930;25.178;2024-02-26T04:06:47;12.90;1.00
11559;DHT22;5835;42.930;25.178;2024-02-26T04:09:15;12.90;1.00
11559;DHT22;5835;42.930;25.178;2024-02-26T04:11:42;12.90;1.00
11559;DHT22;5835;42.930;25.178;2024-02-26T04:14:10;12.90;1.00
11559;DHT22;5835;42.930;25.178;2024-02-26T04:16:38;12.90;1.00
11559;DHT22;5835;42.930;25.178;2024-02-26T04:19:06;12.90;1.00
11559;DHT22;5835;42.930;25.178;2024-02-26T04:21:35;12.90;1.00
11559;DHT22;5835;42.930;25.178;2024-02-26T04:24:02;12.80;1.00
11559;DHT22;5835;42.930;25.178;2024-02-26T04:26:30;12.80;1.00
11559;DHT22;5835;42.930;25.178;2024-02-26T04:28:58;12.80;1.00
11559;DHT22;5835;42.930;25.178;2024-02-26T04:31:25;12.80;1.00
11559;DHT22;5835;42.930;25.178;2024-02-26T04:33:53;12.70;1.00
11559;DHT22;5835;42.930;25.178;2024-02-26T04:36:20;12.70;3.50
11559;DHT22;5835;42.930;25.178;2024-02-26T04:38:49;12.70;5.30
11559;DHT22;5835;42.930;25.178;2024-02-26T04:41:16;12.70;5.90
11559;DHT22;5835;42.930;25.178;2024-02-26T04:43:44;12.70;7.50
11559;DHT22;5835;42.930;25.178;2024-02-26T04:46:11;12.70;6.80
11559;DHT22;5835;42.930;25.178;2024-02-26T04:48:38;12.60;10.00
11559;DHT22;5835;42.930;25.178;2024-02-26T04:51:08;12.60;12.50
11559;DHT22;5835;42.930;25.178;2024-02-26T04:53:36;12.50;18.20
11559;DHT22;5835;42.930;25.178;2024-02-26T04:56:06;12.50;18.40
11559;DHT22;5835;42.930;25.178;2024-02-26T04:58:33;12.50;21.30
11559;DHT22;5835;42.930;25.178;2024-02-26T05:01:01;12.50;21.50
11559;DHT22;5835;42.930;25.178;2024-02-26T05:03:29;12.60;21.10
11559;DHT22;5835;42.930;25.178;2024-02-26T05:05:56;12.50;21.70
11559;DHT22;5835;42.930;25.178;2024-02-26T05:08:24;12.50;18.80
11559;DHT22;5835;42.930;25.178;2024-02-26T05:10:51;12.60;15.30
11559;DHT22;5835;42.930;25.178;2024-02-26T05:13:20;12.70;12.60
11559;DHT22;5835;42.930;25.178;2024-02-26T05:15:48;12.70;8.00
11559;DHT22;5835;42.930;25.178;2024-02-26T05:18:18;12.70;9.80
11559;DHT22;5835;42.930;25.178;2024-02-26T05:20:45;12.70;8.10
11559;DHT22;5835;42.930;25.178;2024-02-26T05:23:13;12.70;7.80
11559;DHT22;5835;42.930;25.178;2024-02-26T05:25:40;12.70;9.00
11559;DHT22;5835;42.930;25.178;2024-02-26T05:28:08;12.80;10.30
11559;DHT22;5835;42.930;25.178;2024-02-26T05:30:37;12.80;10.60
11559;DHT22;5835;42.930;25.178;2024-02-26T05:33:05;12.80;12.70
11559;DHT22;5835;42.930;25.178;2024-02-26T05:35:33;12.80;15.00
11559;DHT22;5835;42.930;25.178;2024-02-26T05:38:00;12.80;18.00
11559;DHT22;5835;42.930;25.178;2024-02-26T05:40:28;12.80;20.80
11559;DHT22;5835;42.930;25.178;2024-02-26T05:42:55;12.80;25.30
11559;DHT22;5835;42.930;25.178;2024-02-26T05:45:23;12.80;23.40
11559;DHT22;5835;42.930;25.178;2024-02-26T05:47:52;12.90;24.90
11559;DHT22;5835;42.930;25.178;2024-02-26T05:50:19;12.90;24.20
11559;DHT22;5835;42.930;25.178;2024-02-26T05:52:47;12.90;24.40
11559;DHT22;5835;42.930;25.178;2024-02-26T05:55:14;12.90;22.70
11559;DHT22;5835;42.930;25.178;2024-02-26T05:57:42;12.90;21.60
11559;DHT22;5835;42.930;25.178;2024-02-26T06:00:10;13.00;17.90
11559;DHT22;5835;42.930;25.178;2024-02-26T06:02:39;13.00;13.80
11559;DHT22;5835;42.930;25.178;2024-02-26T06:05:08;13.10;11.80
11559;DHT22;5835;42.930;25.178;2024-02-26T06:07:36;13.10;7.70
11559;DHT22;5835;42.930;25.178;2024-02-26T06:10:03;13.10;6.30
11559;DHT22;5835;42.930;25.178;2024-02-26T06:12:31;13.20;3.00
11559;DHT22;5835;42.930;25.178;2024-02-26T06:14:59;13.20;2.40
11559;DHT22;5835;42.930;25.178;2024-02-26T06:17:27;13.20;1.00
11559;DHT22;5835;42.930;25.178;2024-02-26T06:19:54;13.20;1.00
11559;DHT22;5835;42.930;25.178;2024-02-26T06:22:24;13.30;1.00
11559;DHT22;5835;42.930;25.178;2024-02-26T06:24:51;13.30;1.00
11559;DHT22;5835;42.930;25.178;2024-02-26T06:27:19;13.30;1.00
11559;DHT22;5835;42.930;25.178;2024-02-26T06:29:47;13.40;1.00
11559;DHT22;5835;42.930;25.178;2024-02-26T06:32:15;13.40;1.00
11559;DHT22;5835;42.930;25.178;2024-02-26T06:34:43;13.40;1.00
11559;DHT22;5835;42.930;25.178;2024-02-26T06:37:10;13.50;1.00
11559;DHT22;5835;42.930;25.178;2024-02-26T06:39:39;13.50;1.00
11559;DHT22;5835;42.930;25.178;2024-02-26T06:42:07;13.50;1.00
11559;DHT22;5835;42.930;25.178;2024-02-26T06:44:34;13.60;1.00
11559;DHT22;5835;42.930;25.178;2024-02-26T06:47:02;13.60;1.00
11559;DHT22;5835;42.930;25.178;2024-02-26T06:49:30;13.70;1.00
11559;DHT22;5835;42.930;25.178;2024-02-26T06:51:56;13.70;1.00
11559;DHT22;5835;42.930;25.178;2024-02-26T06:54:24;13.70;1.00
11559;DHT22;5835;42.930;25.178;2024-02-26T06:56:53;13.70;1.00
11559;DHT22;5835;42.930;25.178;2024-02-26T06:59:20;13.80;1.00
11559;DHT22;5835;42.930;25.178;2024-02-26T07:01:49;13.90;1.00
11559;DHT22;5835;42.930;25.178;2024-02-26T07:04:17;13.90;1.00
11559;DHT22;5835;42.930;25.178;2024-02-26T07:06:44;13.90;1.00
11559;DHT22;5835;42.930;25.178;2024-02-26T07:09:12;13.90;1.00
11559;DHT22;5835;42.930;25.178;2024-02-26T07:11:40;13.90;1.00
11559;DHT22;5835;42.930;25.178;2024-02-26T07:14:10;14.00;1.00
11559;DHT22;5835;42.930;25.178;2024-02-26T07:16:37;14.10;1.00
11559;DHT22;5835;42.930;25.178;2024-02-26T07:19:05;14.10;1.00
11559;DHT22;5835;42.930;25.178;2024-02-26T07:21:33;14.20;1.00
11559;DHT22;5835;42.930;25.178;2024-02-26T07:24:03;14.20;1.00
11559;DHT22;5835;42.930;25.178;2024-02-26T07:26:31;14.20;1.00
11559;DHT22;5835;42.930;25.178;2024-02-26T07:28:58;14.30;1.00
11559;DHT22;5835;42.930;25.178;2024-02-26T07:31:27;14.40;1.00
11559;DHT22;5835;42.930;25.178;2024-02-26T07:33:54;14.50;1.00
11559;DHT22;5835;42.930;25.178;2024-02-26T07:36:22;14.60;1.00
11559;DHT22;5835;42.930;25.178;2024-02-26T07:38:49;14.60;1.00
11559;DHT22;5835;42.930;25.178;2024-02-26T07:41:18;14.70;1.00
11559;DHT22;5835;42.930;25.178;2024-02-26T07:43:45;14.80;1.00
11559;DHT22;5835;42.930;25.178;2024-02-26T07:46:13;14.90;1.00
11559;DHT22;5835;42.930;25.178;2024-02-26T07:48:42;15.00;1.00
11559;DHT22;5835;42.930;25.178;2024-02-26T07:51:12;15.10;1.00
11559;DHT22;5835;42.930;25.178;2024-02-26T07:53:40;15.20;1.00
11559;DHT22;5835;42.930;25.178;2024-02-26T07:56:08;15.30;1.00
11559;DHT22;5835;42.930;25.178;2024-02-26T07:58:36;15.40;1.00
11559;DHT22;5835;42.930;25.178;2024-02-26T08:01:03;15.50;1.00
11559;DHT22;5835;42.930;25.178;2024-02-26T08:03:31;15.60;1.00
11559;DHT22;5835;42.930;25.178;2024-02-26T08:06:01;15.70;1.00
11559;DHT22;5835;42.930;25.178;2024-02-26T08:08:28;15.80;1.00
11559;DHT22;5835;42.930;25.178;2024-02-26T08:10:56;15.90;1.00
11559;DHT22;5835;42.930;25.178;2024-02-26T08:13:23;15.90;1.00
11559;DHT22;5835;42.930;25.178;2024-02-26T08:15:52;16.00;1.00
11559;DHT22;5835;42.930;25.178;2024-02-26T08:18:20;16.10;1.00
11559;DHT22;5835;42.930;25.178;2024-02-26T08:20:47;16.30;1.00
11559;DHT22;5835;42.930;25.178;2024-02-26T08:23:17;16.40;1.00
11559;DHT22;5835;42.930;25.178;2024-02-26T08:25:44;16.60;1.00
11559;DHT22;5835;42.930;25.178;2024-02-26T08:28:12;16.60;1.00
11559;DHT22;5835;42.930;25.178;2024-02-26T08:30:39;16.70;1.00
11559;DHT22;5835;42.930;25.178;2024-02-26T08:33:07;16.80;1.00
11559;DHT22;5835;42.930;25.178;2024-02-26T08:35:34;16.80;1.00
11559;DHT22;5835;42.930;25.178;2024-02-26T08:38:02;16.90;1.00
11559;DHT22;5835;42.930;25.178;2024-02-26T08:40:31;16.90;1.00
11559;DHT22;5835;42.930;25.178;2024-02-26T08:42:59;17.00;1.00
11559;DHT22;5835;42.930;25.178;2024-02-26T08:45:26;17.20;1.00
11559;DHT22;5835;42.930;25.178;2024-02-26T08:47:53;17.40;1.00
11559;DHT22;5835;42.930;25.178;2024-02-26T08:50:21;17.70;1.00
11559;DHT22;5835;42.930;25.178;2024-02-26T08:52:49;17.80;1.00
11559;DHT22;5835;42.930;25.178;2024-02-26T08:55:17;17.90;1.00
11559;DHT22;5835;42.930;25.178;2024-02-26T08:57:46;18.10;1.00
11559;DHT22;5835;42.930;25.178;2024-02-26T09:00:15;18.20;1.00
11559;DHT22;5835;42.930;25.178;2024-02-26T09:02:43;18.40;1.00
11559;DHT22;5835;42.930;25.178;2024-02-26T09:05:11;18.50;1.00
11559;DHT22;5835;42.930;25.178;2024-02-26T09:07:38;18.50;1.00
11559;DHT22;5835;42.930;25.178;2024-02-26T09:10:07;18.60;1.00
11559;DHT22;5835;42.930;25.178;2024-02-26T09:12:36;18.70;1.00
11559;DHT22;5835;42.930;25.178;2024-02-26T09:15:06;18.80;1.00
11559;DHT22;5835;42.930;25.178;2024-02-26T09:17:34;18.60;1.00
11559;DHT22;5835;42.930;25.178;2024-02-26T09:20:02;18.50;1.00
11559;DHT22;5835;42.930;25.178;2024-02-26T09:22:31;18.50;1.00
11559;DHT22;5835;42.930;25.178;2024-02-26T09:25:00;18.30;1.00
11559;DHT22;5835;42.930;25.178;2024-02-26T09:27:28;18.40;1.00
11559;DHT22;5835;42.930;25.178;2024-02-26T09:29:56;18.50;1.00
11559;DHT22;5835;42.930;25.178;2024-02-26T09:32:25;18.40;1.00
11559;DHT22;5835;42.930;25.178;2024-02-26T09:34:53;18.50;1.00
11559;DHT22;5835;42.930;25.178;2024-02-26T09:37:20;18.70;1.00
11559;DHT22;5835;42.930;25.178;2024-02-26T09:39:48;18.70;1.00
11559;DHT22;5835;42.930;25.178;2024-02-26T09:42:18;18.70;1.00
11559;DHT22;5835;42.930;25.178;2024-02-26T09:44:46;18.60;1.00
11559;DHT22;5835;42.930;25.178;2024-02-26T09:47:15;18.50;1.00
11559;DHT22;5835;42.930;25.178;2024-02-26T09:49:47;18.50;1.00
11559;DHT22;5835;42.930;25.178;2024-02-26T09:52:15;18.50;1.00
11559;DHT22;5835;42.930;25.178;2024-02-26T09:54:47;18.50;1.00
11559;DHT22;5835;42.930;25.178;2024-02-26T09:57:16;18.70;1.00
11559;DHT22;5835;42.930;25.178;2024-02-26T09:59:44;18.70;1.00
11559;DHT22;5835;42.930;25.178;2024-02-26T10:02:15;18.70;1.00
11559;DHT22;5835;42.930;25.178;2024-02-26T10:04:44;19.00;1.00
11559;DHT22;5835;42.930;25.178;2024-02-26T10:07:16;19.00;1.00
11559;DHT22;5835;42.930;25.178;2024-02-26T10:09:44;18.90;1.00
11559;DHT22;5835;42.930;25.178;2024-02-26T10:12:12;18.80;1.00
11559;DHT22;5835;42.930;25.178;2024-02-26T10:14:41;18.70;1.00
11559;DHT22;5835;42.930;25.178;2024-02-26T10:17:09;18.60;1.00
11559;DHT22;5835;42.930;25.178;2024-02-26T10:19:37;18.40;1.00
11559;DHT22;5835;42.930;25.178;2024-02-26T10:22:06;18.40;1.00
11559;DHT22;5835;42.930;25.178;2024-02-26T10:24:33;18.30;1.00
11559;DHT22;5835;42.930;25.178;2024-02-26T10:27:02;18.20;1.00
11559;DHT22;5835;42.930;25.178;2024-02-26T10:29:31;18.20;1.00
11559;DHT22;5835;42.930;25.178;2024-02-26T10:31:59;18.00;1.00
11559;DHT22;5835;42.930;25.178;2024-02-26T10:34:26;17.90;1.00
11559;DHT22;5835;42.930;25.178;2024-02-26T10:36:55;17.80;1.00
11559;DHT22;5835;42.930;25.178;2024-02-26T10:39:24;17.80;1.00
11559;DHT22;5835;42.930;25.178;2024-02-26T10:41:51;17.90;1.00
11559;DHT22;5835;42.930;25.178;2024-02-26T10:44:19;18.00;1.00
11559;DHT22;5835;42.930;25.178;2024-02-26T10:46:47;18.00;1.00
11559;DHT22;5835;42.930;25.178;2024-02-26T10:49:17;17.90;1.00
11559;DHT22;5835;42.930;25.178;2024-02-26T10:51:49;17.90;1.00
11559;DHT22;5835;42.930;25.178;2024-02-26T10:54:20;18.10;1.00
11559;DHT22;5835;42.930;25.178;2024-02-26T10:56:50;18.30;1.00
11559;DHT22;5835;42.930;25.178;2024-02-26T10:59:20;18.50;1.00
11559;DHT22;5835;42.930;25.178;2024-02-26T11:01:49;18.80;1.00
11559;DHT22;5835;42.930;25.178;2024-02-26T11:04:17;19.00;1.00
11559;DHT22;5835;42.930;25.178;2024-02-26T11:06:45;19.20;1.00
11559;DHT22;5835;42.930;25.178;2024-02-26T11:09:14;19.30;1.00
11559;DHT22;5835;42.930;25.178;2024-02-26T11:11:42;19.30;1.00
11559;DHT22;5835;42.930;25.178;2024-02-26T11:14:11;19.30;1.00
11559;DHT22;5835;42.930;25.178;2024-02-26T11:16:40;19.20;1.00
11559;DHT22;5835;42.930;25.178;2024-02-26T11:19:09;19.20;1.00
11559;DHT22;5835;42.930;25.178;2024-02-26T11:21:39;19.10;1.00
11559;DHT22;5835;42.930;25.178;2024-02-26T11:24:12;19.00;1.00
11559;DHT22;5835;42.930;25.178;2024-02-26T11:26:42;19.00;1.00
11559;DHT22;5835;42.930;25.178;2024-02-26T11:29:18;19.00;1.00
11559;DHT22;5835;42.930;25.178;2024-02-26T11:31:48;19.00;1.00
11559;DHT22;5835;42.930;25.178;2024-02-26T11:34:17;18.80;1.00
11559;DHT22;5835;42.930;25.178;2024-02-26T11:36:45;18.70;1.00
11559;DHT22;5835;42.930;25.178;2024-02-26T11:39:12;18.70;1.00
11559;DHT22;5835;42.930;25.178;2024-02-26T11:41:42;18.70;1.00
11559;DHT22;5835;42.930;25.178;2024-02-26T11:44:10;18.70;1.00
11559;DHT22;5835;42.930;25.178;2024-02-26T11:46:41;18.90;1.00
11559;DHT22;5835;42.930;25.178;2024-02-26T11:49:31;18.90;1.00
11559;DHT22;5835;42.930;25.178;2024-02-26T11:52:00;19.00;1.00
11559;DHT22;5835;42.930;25.178;2024-02-26T11:54:40;19.00;1.00
11559;DHT22;5835;42.930;25.178;2024-02-26T11:57:26;19.10;1.00
11559;DHT22;5835;42.930;25.178;2024-02-26T11:59:55;19.20;1.00
11559;DHT22;5835;42.930;25.178;2024-02-26T12:02:41;19.20;1.00
11559;DHT22;5835;42.930;25.178;2024-02-26T12:05:12;19.20;1.00
11559;DHT22;5835;42.930;25.178;2024-02-26T12:07:46;19.20;1.00
11559;DHT22;5835;42.930;25.178;2024-02-26T12:10:16;19.20;1.00
11559;DHT22;5835;42.930;25.178;2024-02-26T12:12:43;19.20;1.00
11559;DHT22;5835;42.930;25.178;2024-02-26T12:15:12;19.20;1.00
11559;DHT22;5835;42.930;25.178;2024-02-26T12:17:48;19.20;1.00
11559;DHT22;5835;42.930;25.178;2024-02-26T12:20:17;19.30;1.00
11559;DHT22;5835;42.930;25.178;2024-02-26T12:22:46;19.30;1.00
11559;DHT22;5835;42.930;25.178;2024-02-26T12:25:14;19.30;1.00
11559;DHT22;5835;42.930;25.178;2024-02-26T12:27:41;19.20;1.00
11559;DHT22;5835;42.930;25.178;2024-02-26T12:30:10;19.20;1.00
11559;DHT22;5835;42.930;25.178;2024-02-26T12:32:38;19.20;1.00
11559;DHT22;5835;42.930;25.178;2024-02-26T12:35:08;19.30;1.00
11559;DHT22;5835;42.930;25.178;2024-02-26T12:37:35;19.20;1.00
11559;DHT22;5835;42.930;25.178;2024-02-26T12:40:05;19.20;1.00
11559;DHT22;5835;42.930;25.178;2024-02-26T12:42:35;19.10;1.00
11559;DHT22;5835;42.930;25.178;2024-02-26T12:45:06;19.00;1.00
11559;DHT22;5835;42.930;25.178;2024-02-26T12:47:38;19.10;1.00
11559;DHT22;5835;42.930;25.178;2024-02-26T12:50:08;19.00;1.00
11559;DHT22;5835;42.930;25.178;2024-02-26T12:52:38;19.00;1.00
11559;DHT22;5835;42.930;25.178;2024-02-26T12:55:06;18.90;1.00
11559;DHT22;5835;42.930;25.178;2024-02-26T12:57:36;18.90;1.00
11559;DHT22;5835;42.930;25.178;2024-02-26T13:00:05;19.00;1.00
11559;DHT22;5835;42.930;25.178;2024-02-26T13:02:35;18.90;1.00
11559;DHT22;5835;42.930;25.178;2024-02-26T13:05:07;18.80;1.00
11559;DHT22;5835;42.930;25.178;2024-02-26T13:07:35;18.70;1.00
11559;DHT22;5835;42.930;25.178;2024-02-26T13:10:08;18.80;1.00
11559;DHT22;5835;42.930;25.178;2024-02-26T13:12:37;18.70;1.00
11559;DHT22;5835;42.930;25.178;2024-02-26T13:15:06;18.70;1.00
11559;DHT22;5835;42.930;25.178;2024-02-26T13:17:34;18.80;1.00
11559;DHT22;5835;42.930;25.178;2024-02-26T13:20:01;18.70;1.00
11559;DHT22;5835;42.930;25.178;2024-02-26T13:22:33;18.60;1.00
11559;DHT22;5835;42.930;25.178;2024-02-26T13:25:00;18.60;1.00
11559;DHT22;5835;42.930;25.178;2024-02-26T13:27:29;18.60;1.00
11559;DHT22;5835;42.930;25.178;2024-02-26T13:30:05;18.50;1.00
11559;DHT22;5835;42.930;25.178;2024-02-26T13:32:34;18.50;1.00
11559;DHT22;5835;42.930;25.178;2024-02-26T13:35:06;18.50;1.00
11559;DHT22;5835;42.930;25.178;2024-02-26T13:37:35;18.60;1.00
11559;DHT22;5835;42.930;25.178;2024-02-26T13:40:07;18.60;1.00
11559;DHT22;5835;42.930;25.178;2024-02-26T13:42:35;18.50;1.00
11559;DHT22;5835;42.930;25.178;2024-02-26T13:45:03;18.50;1.00
11559;DHT22;5835;42.930;25.178;2024-02-26T13:47:32;18.50;1.00
11559;DHT22;5835;42.930;25.178;2024-02-26T13:49:59;18.50;1.00
11559;DHT22;5835;42.930;25.178;2024-02-26T13:52:28;18.50;1.00
11559;DHT22;5835;42.930;25.178;2024-02-26T13:54:59;18.40;1.00
11559;DHT22;5835;42.930;25.178;2024-02-26T13:57:27;18.40;1.00
11559;DHT22;5835;42.930;25.178;2024-02-26T13:59:56;18.50;1.00
11559;DHT22;5835;42.930;25.178;2024-02-26T14:02:23;18.50;1.00
11559;DHT22;5835;42.930;25.178;2024-02-26T14:04:51;18.50;1.00
11559;DHT22;5835;42.930;25.178;2024-02-26T14:07:19;18.60;1.00
11559;DHT22;5835;42.930;25.178;2024-02-26T14:09:46;18.70;1.00
11559;DHT22;5835;42.930;25.178;2024-02-26T14:12:18;18.60;1.00
11559;DHT22;5835;42.930;25.178;2024-02-26T14:14:45;18.60;1.00
11559;DHT22;5835;42.930;25.178;2024-02-26T14:17:14;18.40;1.00
11559;DHT22;5835;42.930;25.178;2024-02-26T14:19:42;18.30;1.00
11559;DHT22;5835;42.930;25.178;2024-02-26T14:22:11;18.30;1.00
11559;DHT22;5835;42.930;25.178;2024-02-26T14:24:38;18.20;1.00
11559;DHT22;5835;42.930;25.178;2024-02-26T14:27:10;18.10;1.00
11559;DHT22;5835;42.930;25.178;2024-02-26T14:29:41;18.10;1.00
11559;DHT22;5835;42.930;25.178;2024-02-26T14:32:09;18.10;1.00
11559;DHT22;5835;42.930;25.178;2024-02-26T14:34:36;18.10;1.00
11559;DHT22;5835;42.930;25.178;2024-02-26T14:37:04;18.00;1.00
11559;DHT22;5835;42.930;25.178;2024-02-26T14:39:32;17.90;1.00
11559;DHT22;5835;42.930;25.178;2024-02-26T14:42:00;17.80;1.00
11559;DHT22;5835;42.930;25.178;2024-02-26T14:44:28;17.80;1.00
11559;DHT22;5835;42.930;25.178;2024-02-26T14:46:57;17.80;1.00
11559;DHT22;5835;42.930;25.178;2024-02-26T14:49:26;17.70;1.00
11559;DHT22;5835;42.930;25.178;2024-02-26T14:51:55;17.60;1.00
11559;DHT22;5835;42.930;25.178;2024-02-26T14:54:23;17.60;1.00
11559;DHT22;5835;42.930;25.178;2024-02-26T14:56:50;17.50;1.00
11559;DHT22;5835;42.930;25.178;2024-02-26T14:59:18;17.50;1.00
11559;DHT22;5835;42.930;25.178;2024-02-26T15:01:45;17.30;1.00
11559;DHT22;5835;42.930;25.178;2024-02-26T15:04:18;17.30;1.00
11559;DHT22;5835;42.930;25.178;2024-02-26T15:06:45;17.30;1.00
11559;DHT22;5835;42.930;25.178;2024-02-26T15:09:13;17.20;1.00
11559;DHT22;5835;42.930;25.178;2024-02-26T15:11:41;17.20;1.00
11559;DHT22;5835;42.930;25.178;2024-02-26T15:14:10;17.00;1.00
11559;DHT22;5835;42.930;25.178;2024-02-26T15:16:37;17.00;1.00
11559;DHT22;5835;42.930;25.178;2024-02-26T15:19:05;17.00;1.00
11559;DHT22;5835;42.930;25.178;2024-02-26T15:21:34;16.80;1.00
11559;DHT22;5835;42.930;25.178;2024-02-26T15:24:02;16.70;1.00
11559;DHT22;5835;42.930;25.178;2024-02-26T15:26:30;16.70;1.00
11559;DHT22;5835;42.930;25.178;2024-02-26T15:28:57;16.60;1.00
11559;DHT22;5835;42.930;25.178;2024-02-26T15:31:24;16.50;1.00
11559;DHT22;5835;42.930;25.178;2024-02-26T15:33:52;16.40;1.00
11559;DHT22;5835;42.930;25.178;2024-02-26T15:36:20;16.40;1.00
11559;DHT22;5835;42.930;25.178;2024-02-26T15:38:49;16.30;1.00
11559;DHT22;5835;42.930;25.178;2024-02-26T15:41:17;16.20;1.00
11559;DHT22;5835;42.930;25.178;2024-02-26T15:43:44;16.20;1.00
11559;DHT22;5835;42.930;25.178;2024-02-26T15:46:12;16.10;1.00
11559;DHT22;5835;42.930;25.178;2024-02-26T15:48:39;16.00;1.00